Terminal Aerodrome Forecast
Issued by NWS

Home | Current Version | Previous Version | Text Only | Print | Product List | Glossary On
Versions: 1 2 3 4 5 6 7 8 9 10 11 12 13 14
000
FTUS43 KDTX 292320
TAFYIP
TAF
KYIP 292320Z 3000/3024 05007KT P6SM VCSH SCT060 BKN100
     FM300300 04006KT P6SM SCT100 BKN200
      TEMPO 3007/3011 5SM HZ
     FM301400 05008KT P6SM SCT050 SCT150
     FM302000 06009KT P6SM BKN060 BKN150=

USA.gov is the U.S. government's official web portal to all federal, state and local government web resources and services.